createdAt,value
2022-12-01T00:00:58.620Z,99939.31
2022-12-01T00:02:35.425Z,99944.56
2022-12-01T00:04:09.223Z,99942.78
2022-12-01T00:05:46.268Z,99946.28
2022-12-01T00:07:20.483Z,99948.94
2022-12-01T00:09:16.483Z,99941.97
2022-12-01T00:10:54.983Z,99950.72
2022-12-01T00:12:30.304Z,99953.31
2022-12-01T00:14:05.178Z,99960.28
2022-12-01T00:15:40.140Z,99950.69
2022-12-01T00:17:14.401Z,99961.16
2022-12-01T00:18:51.968Z,99964.66
2022-12-01T00:20:28.793Z,99956.81
2022-12-01T00:22:02.654Z,99955.03
2022-12-01T00:23:37.086Z,99958.53
2022-12-01T00:25:14.079Z,99960.28
2022-12-01T00:26:47.415Z,99958.53
2022-12-01T00:28:22.033Z,99951.56
2022-12-01T00:29:55.790Z,99949.81
2022-12-01T00:31:30.979Z,99954.19
2022-12-01T00:33:04.980Z,99960.28
2022-12-01T00:34:39.205Z,99961.19
2022-12-01T00:36:12.921Z,99955.06
2022-12-01T00:37:47.568Z,99955.03
2022-12-01T00:39:24.736Z,99960.28
2022-12-01T00:40:57.528Z,99963.78
2022-12-01T00:42:31.463Z,99962.91
2022-12-01T00:44:06.839Z,99962.03
2022-12-01T00:45:40.967Z,99960.28
2022-12-01T00:47:13.254Z,99962.03
2022-12-01T00:48:46.901Z,99954.19
2022-12-01T00:50:20.237Z,99950.69
2022-12-01T00:51:53.493Z,99955.06
2022-12-01T00:53:26.664Z,99955.91
2022-12-01T00:55:00.654Z,99944.59
2022-12-01T00:56:34.102Z,99962.03
2022-12-01T00:58:07.320Z,99955.03
2022-12-01T00:59:42.363Z,99953.28
2022-12-01T01:01:15.634Z,99949.78
2022-12-01T01:02:50.243Z,99946.31
2022-12-01T01:04:23.669Z,99950.69
2022-12-01T01:05:55.888Z,99952.41
2022-12-01T01:07:31.345Z,99953.31
2022-12-01T01:09:03.849Z,99944.56
2022-12-01T01:10:39.607Z,99946.31
2022-12-01T01:12:12.817Z,99948.06
2022-12-01T01:13:46.047Z,99942.84
2022-12-01T01:15:20.791Z,99946.34
2022-12-01T01:16:56.690Z,99942.84
2022-12-01T01:18:30.118Z,99929.75
2022-12-01T01:20:04.809Z,99937.66
2022-12-01T01:21:38.366Z,99937.63
2022-12-01T01:23:15.207Z,99935.88
2022-12-01T01:24:49.029Z,99934.13
2022-12-01T01:26:24.424Z,99929.78
2022-12-01T01:27:57.728Z,99927.16
2022-12-01T01:29:30.163Z,99926.31
2022-12-01T01:31:09.102Z,99925.44
2022-12-01T01:32:42.289Z,99921.06
2022-12-01T01:34:15.632Z,99920.22
2022-12-01T01:35:49.715Z,99916.69
2022-12-01T01:37:22.939Z,99927.19
2022-12-01T01:38:56.421Z,99915.81
2022-12-01T01:40:29.737Z,99917.59
2022-12-01T01:42:03.365Z,99918.44
2022-12-01T01:43:44.764Z,99916.72
2022-12-01T01:45:23.380Z,99907.13
2022-12-01T01:46:57.156Z,99910.59
2022-12-01T01:48:32.447Z,99914.97
2022-12-01T01:50:10.969Z,99920.19
2022-12-01T01:51:50.366Z,99917.59
2022-12-01T01:53:24.986Z,99909.75
2022-12-01T01:54:58.429Z,99921.94
2022-12-01T01:56:33.561Z,99923.69
2022-12-01T01:58:11.361Z,99927.16
2022-12-01T01:59:50.402Z,99917.59
2022-12-01T02:01:24.115Z,99914.97
2022-12-01T02:03:00.341Z,99916.69
2022-12-01T02:04:38.949Z,99919.31
2022-12-01T02:06:14.107Z,99920.19
2022-12-01T02:07:49.136Z,99913.22
2022-12-01T02:09:22.411Z,99914.94
2022-12-01T02:11:19.908Z,99907.13
2022-12-01T02:13:13.472Z,99912.34
2022-12-01T02:15:10.103Z,99897.53
2022-12-01T02:16:52.530Z,99916.72
2022-12-01T02:18:32.337Z,99914.09
2022-12-01T02:20:44.101Z,99917.59
2022-12-01T02:22:29.471Z,99914.97
2022-12-01T02:24:48.108Z,99920.19
2022-12-01T02:26:40.256Z,99918.47
2022-12-01T02:28:58.095Z,99921.94
2022-12-01T02:30:41.013Z,99916.69
2022-12-01T02:32:21.546Z,99917.56
2022-12-01T02:33:57.653Z,99921.94
2022-12-01T02:35:38.151Z,99920.19
2022-12-01T02:37:19.948Z,99921.94
2022-12-01T02:38:57.309Z,99921.94
2022-12-01T02:40:35.209Z,99904.50
2022-12-01T02:42:38.615Z,99917.56
2022-12-01T02:44:19.799Z,99909.75
2022-12-01T02:46:06.153Z,99907.97
2022-12-01T02:47:41.778Z,99904.50
2022-12-01T02:49:21.969Z,99914.94
2022-12-01T02:50:58.445Z,99906.25
2022-12-01T02:52:32.324Z,99908.00
2022-12-01T02:54:07.378Z,99901.00
2022-12-01T02:55:49.570Z,99898.41
2022-12-01T02:57:23.344Z,99899.25
2022-12-01T02:58:56.688Z,99903.63
2022-12-01T03:00:32.696Z,99908.00
2022-12-01T03:02:14.829Z,99906.25
2022-12-01T03:04:06.242Z,99904.50
2022-12-01T03:05:44.502Z,99904.50
2022-12-01T03:07:36.492Z,99907.13
2022-12-01T03:09:17.311Z,99901.03
2022-12-01T03:10:54.176Z,99905.38
2022-12-01T03:12:36.746Z,99906.25
2022-12-01T03:14:18.315Z,99903.66
2022-12-01T03:16:00.018Z,99912.34
2022-12-01T03:17:40.935Z,99923.69
2022-12-01T03:19:18.868Z,99910.59
2022-12-01T03:20:58.484Z,99911.50
2022-12-01T03:22:36.080Z,99908.00
2022-12-01T03:24:12.861Z,99906.25
2022-12-01T03:25:50.443Z,99911.50
2022-12-01T03:27:28.268Z,99910.59
2022-12-01T03:29:08.261Z,99915.84
2022-12-01T03:30:44.063Z,99915.84
2022-12-01T03:32:21.804Z,99911.50
2022-12-01T03:34:06.091Z,99905.38
2022-12-01T03:35:44.331Z,99906.22
2022-12-01T03:37:22.496Z,99871.38
2022-12-01T03:39:01.241Z,99910.63
2022-12-01T03:40:39.306Z,99901.88
2022-12-01T03:42:17.215Z,99905.38
2022-12-01T03:43:54.988Z,99897.53
2022-12-01T03:45:35.856Z,99889.69
2022-12-01T03:47:13.951Z,99891.41
2022-12-01T03:48:47.685Z,99894.03
2022-12-01T03:50:25.117Z,99892.31
2022-12-01T03:52:10.924Z,99891.41
2022-12-01T03:53:58.406Z,99880.97
2022-12-01T03:55:38.792Z,99880.09
2022-12-01T03:57:17.471Z,99902.75
2022-12-01T03:58:54.111Z,99894.03
2022-12-01T04:00:27.064Z,99905.38
2022-12-01T04:02:00.268Z,99905.38
2022-12-01T04:03:34.512Z,99902.75
2022-12-01T04:05:14.761Z,99901.91
2022-12-01T04:06:51.597Z,99907.97
2022-12-01T04:08:27.043Z,99907.97
2022-12-01T04:10:00.254Z,99916.69
2022-12-01T04:11:51.869Z,99909.72
2022-12-01T04:13:33.787Z,99909.72
2022-12-01T04:15:09.221Z,99906.22
2022-12-01T04:16:43.006Z,99904.50
2022-12-01T04:18:16.141Z,99900.09
2022-12-01T04:19:50.033Z,99904.50
2022-12-01T04:21:23.706Z,99906.25
2022-12-01T04:22:58.574Z,99901.03
2022-12-01T04:24:31.502Z,99899.25
2022-12-01T04:26:09.010Z,99913.19
2022-12-01T04:27:46.014Z,99898.38
2022-12-01T04:29:18.571Z,99909.72
2022-12-01T04:30:51.876Z,99906.22
2022-12-01T04:32:25.244Z,99912.31
2022-12-01T04:33:58.402Z,99908.84
2022-12-01T04:35:31.717Z,99912.31
2022-12-01T04:37:06.155Z,99891.41
2022-12-01T04:38:40.130Z,99905.34
2022-12-01T04:40:14.051Z,99908.88
2022-12-01T04:41:47.593Z,99914.94
2022-12-01T04:43:21.011Z,99918.44
2022-12-01T04:44:54.356Z,99911.47
2022-12-01T04:46:26.710Z,99920.19
2022-12-01T04:48:00.165Z,99916.72
2022-12-01T04:49:35.233Z,99925.41
2022-12-01T04:51:10.413Z,99916.69
2022-12-01T04:52:43.765Z,99919.31
2022-12-01T04:54:20.726Z,99923.69
2022-12-01T04:55:53.090Z,99920.22
2022-12-01T04:57:26.400Z,99920.22
2022-12-01T04:58:59.894Z,99921.94
2022-12-01T05:00:33.259Z,99927.16
2022-12-01T05:02:06.592Z,99923.69
2022-12-01T05:03:41.628Z,99917.59
2022-12-01T05:05:15.685Z,99915.84
2022-12-01T05:06:49.984Z,99923.69
2022-12-01T05:08:26.376Z,99921.09
2022-12-01T05:10:01.521Z,99916.69
2022-12-01T05:11:36.579Z,99914.97
2022-12-01T05:13:09.575Z,99921.06
2022-12-01T05:14:42.838Z,99914.97
2022-12-01T05:16:18.206Z,99921.06
2022-12-01T05:17:50.572Z,99911.47
2022-12-01T05:19:42.755Z,99917.59
2022-12-01T05:21:16.158Z,99920.19
2022-12-01T05:23:05.814Z,99915.84
2022-12-01T05:24:39.706Z,99909.72
2022-12-01T05:26:16.157Z,99913.22
2022-12-01T05:27:48.395Z,99908.88
2022-12-01T05:29:22.426Z,99917.56
2022-12-01T05:30:55.689Z,99902.75
2022-12-01T05:32:29.558Z,99899.28
2022-12-01T05:34:04.360Z,99902.75
2022-12-01T05:35:37.914Z,99902.75
2022-12-01T05:37:12.891Z,99904.50
2022-12-01T05:38:46.127Z,99893.16
2022-12-01T05:40:20.714Z,99907.97
2022-12-01T05:41:55.601Z,99904.50
2022-12-01T05:43:29.739Z,99911.50
2022-12-01T05:45:03.090Z,99905.38
2022-12-01T05:46:36.591Z,99908.00
2022-12-01T05:48:10.809Z,99906.25
2022-12-01T05:49:45.572Z,99909.75
2022-12-01T05:51:19.104Z,99908.00
2022-12-01T05:52:52.298Z,99919.31
2022-12-01T05:54:27.703Z,99913.22
2022-12-01T05:56:01.195Z,99922.81
2022-12-01T05:57:35.849Z,99911.47
2022-12-01T05:59:09.032Z,99916.72
2022-12-01T06:00:45.978Z,99903.63
2022-12-01T06:02:19.946Z,99919.31
2022-12-01T06:03:54.314Z,99915.84
2022-12-01T06:05:27.748Z,99930.66
2022-12-01T06:07:01.273Z,99923.66
2022-12-01T06:08:40.820Z,99925.44
2022-12-01T06:10:15.376Z,99927.16
2022-12-01T06:11:52.346Z,99928.91
2022-12-01T06:13:27.342Z,99927.16
2022-12-01T06:15:04.178Z,99922.81
2022-12-01T06:16:37.833Z,99930.66
2022-12-01T06:18:11.207Z,99922.81
2022-12-01T06:19:48.270Z,99931.53
2022-12-01T06:21:21.890Z,99928.03
2022-12-01T06:22:55.550Z,99925.44
2022-12-01T06:24:29.092Z,99929.78
2022-12-01T06:26:03.124Z,99932.41
2022-12-01T06:27:37.560Z,99935.88
2022-12-01T06:29:12.616Z,99932.41
2022-12-01T06:30:47.106Z,99929.78
2022-12-01T06:32:20.466Z,99927.19
2022-12-01T06:33:53.848Z,99935.88
2022-12-01T06:35:28.705Z,99934.16
2022-12-01T06:37:02.313Z,99933.28
2022-12-01T06:38:37.351Z,99935.03
2022-12-01T06:40:11.214Z,99928.91
2022-12-01T06:41:44.737Z,99935.00
2022-12-01T06:43:21.034Z,99932.38
2022-12-01T06:44:56.251Z,99934.16
2022-12-01T06:46:29.781Z,99927.16
2022-12-01T06:48:03.513Z,99928.91
2022-12-01T06:49:37.996Z,99925.44
2022-12-01T06:51:11.587Z,99930.66
2022-12-01T06:52:52.033Z,99922.81
2022-12-01T06:54:28.239Z,99923.69
2022-12-01T06:56:04.888Z,99925.44
2022-12-01T06:57:40.218Z,99927.16
2022-12-01T06:59:15.250Z,99922.81
2022-12-01T07:00:52.249Z,99925.44
2022-12-01T07:02:29.892Z,99925.41
2022-12-01T07:04:08.538Z,99931.53
2022-12-01T07:05:43.287Z,99933.28
2022-12-01T07:07:17.049Z,99939.38
2022-12-01T07:08:55.791Z,99934.16
2022-12-01T07:10:31.370Z,99932.41
2022-12-01T07:12:10.248Z,99930.66
2022-12-01T07:13:50.422Z,99928.91
2022-12-01T07:15:26.249Z,99930.66
2022-12-01T07:17:02.065Z,99925.44
2022-12-01T07:18:45.964Z,99931.53
2022-12-01T07:20:21.693Z,99931.50
2022-12-01T07:21:54.948Z,99928.88
2022-12-01T07:23:28.609Z,99925.41
2022-12-01T07:25:01.888Z,99932.38
2022-12-01T07:26:35.296Z,99930.66
2022-12-01T07:28:09.503Z,99933.25
2022-12-01T07:29:44.201Z,99927.16
2022-12-01T07:31:20.779Z,99934.97
2022-12-01T07:32:56.172Z,99936.75
2022-12-01T07:34:29.497Z,99936.72
2022-12-01T07:36:03.052Z,99935.88
2022-12-01T07:37:41.843Z,99933.25
2022-12-01T07:39:15.332Z,99934.09
2022-12-01T07:40:48.593Z,99949.78
2022-12-01T07:42:22.816Z,99935.84
2022-12-01T07:43:56.739Z,99929.75
2022-12-01T07:45:30.159Z,99928.03
2022-12-01T07:47:05.024Z,99930.63
2022-12-01T07:48:41.326Z,99930.63
2022-12-01T07:50:16.109Z,99927.16
2022-12-01T07:51:49.342Z,99920.19
2022-12-01T07:53:22.663Z,99923.63
2022-12-01T07:54:57.363Z,99927.16
2022-12-01T07:56:30.926Z,99932.38
2022-12-01T07:58:06.452Z,99926.25
2022-12-01T07:59:39.675Z,99914.94
2022-12-01T08:01:17.830Z,99921.94
2022-12-01T08:02:51.255Z,99927.16
2022-12-01T08:04:29.656Z,99926.28
2022-12-01T08:06:04.709Z,99934.09
2022-12-01T08:07:45.465Z,99914.03
2022-12-01T08:09:21.437Z,99939.31
2022-12-01T08:11:01.704Z,99939.31
2022-12-01T08:12:36.961Z,99941.94
2022-12-01T08:14:10.878Z,99940.22
2022-12-01T08:15:44.343Z,99935.00
2022-12-01T08:17:21.132Z,99932.34
2022-12-01T08:18:57.300Z,99936.69
2022-12-01T08:20:32.435Z,99943.69
2022-12-01T08:22:06.981Z,99941.06
2022-12-01T08:23:41.628Z,99937.56
2022-12-01T08:25:14.893Z,99948.06
2022-12-01T08:26:48.550Z,99948.06
2022-12-01T08:28:26.770Z,99945.44
2022-12-01T08:30:00.892Z,99945.44
2022-12-01T08:31:38.212Z,99942.84
2022-12-01T08:33:11.812Z,99932.38
2022-12-01T08:34:53.007Z,99936.72
2022-12-01T08:36:30.176Z,99940.22
2022-12-01T08:38:03.581Z,99931.50
2022-12-01T08:39:37.172Z,99939.31
2022-12-01T08:41:10.770Z,99934.09
2022-12-01T08:42:47.544Z,99924.50
2022-12-01T08:44:23.246Z,99923.63
2022-12-01T08:45:59.398Z,99932.34
2022-12-01T08:47:34.946Z,99921.88
2022-12-01T08:49:08.325Z,99931.47
2022-12-01T08:50:41.615Z,99927.09
2022-12-01T08:52:20.287Z,99921.91
2022-12-01T08:53:54.461Z,99916.66
2022-12-01T08:55:28.111Z,99917.53
2022-12-01T08:57:01.307Z,99923.63
2022-12-01T08:58:36.135Z,99923.66
2022-12-01T09:00:10.449Z,99921.03
2022-12-01T09:01:53.542Z,99927.13
2022-12-01T09:03:27.787Z,99919.28
2022-12-01T09:05:01.097Z,99911.44
2022-12-01T09:06:35.652Z,99919.28
2022-12-01T09:08:28.623Z,99917.53
2022-12-01T09:10:01.840Z,99920.13
2022-12-01T09:11:35.937Z,99913.19
2022-12-01T09:13:11.797Z,99916.69
2022-12-01T09:14:48.338Z,99912.31
2022-12-01T09:16:22.095Z,99916.66
2022-12-01T09:17:57.080Z,99907.91
2022-12-01T09:19:31.949Z,99907.09
2022-12-01T09:21:11.650Z,99904.47
2022-12-01T09:22:46.574Z,99900.09
2022-12-01T09:24:21.487Z,99905.34
2022-12-01T09:25:56.135Z,99901.84
2022-12-01T09:27:29.485Z,99893.13
2022-12-01T09:29:06.551Z,99892.25
2022-12-01T09:30:39.912Z,99900.06
2022-12-01T09:32:18.492Z,99901.84
2022-12-01T09:33:57.156Z,99908.78
2022-12-01T09:35:40.386Z,99887.03
2022-12-01T09:37:14.055Z,99895.72
2022-12-01T09:38:47.518Z,99900.97
2022-12-01T09:40:29.013Z,99894.84
2022-12-01T09:42:09.047Z,99895.72
2022-12-01T09:43:47.926Z,99893.97
2022-12-01T09:45:26.651Z,99893.97
2022-12-01T09:47:10.137Z,99885.25
2022-12-01T09:48:47.266Z,99885.25
2022-12-01T09:50:28.252Z,99886.16
2022-12-01T09:52:01.909Z,99886.16
2022-12-01T09:53:41.875Z,99886.16
2022-12-01T09:55:24.602Z,99872.22
2022-12-01T09:57:00.444Z,99890.53
2022-12-01T09:58:35.909Z,99886.19
2022-12-01T10:00:16.991Z,99893.13
2022-12-01T10:01:59.682Z,99880.94
2022-12-01T10:03:46.104Z,99871.34
2022-12-01T10:05:22.005Z,99880.06
2022-12-01T10:07:00.787Z,99873.97
2022-12-01T10:08:38.859Z,99875.72
2022-12-01T10:10:15.854Z,99867.88
2022-12-01T10:11:55.123Z,99867.84
2022-12-01T10:13:34.556Z,99862.63
2022-12-01T10:15:31.286Z,99866.13
2022-12-01T10:17:21.401Z,99868.72
2022-12-01T10:19:04.157Z,99867.88
2022-12-01T10:20:46.641Z,99877.47
2022-12-01T10:22:47.200Z,99874.84
2022-12-01T10:24:34.500Z,99878.31
2022-12-01T10:26:20.272Z,99871.34
2022-12-01T10:28:08.848Z,99864.34
2022-12-01T10:29:53.091Z,99865.25
2022-12-01T10:32:21.161Z,99866.97
2022-12-01T10:34:32.464Z,99866.13
2022-12-01T10:38:10.352Z,99860.88
2022-12-01T10:39:48.731Z,99864.38
2022-12-01T10:41:29.155Z,99867.00
2022-12-01T10:43:10.148Z,99862.66
2022-12-01T10:44:54.600Z,99866.13
2022-12-01T10:46:51.320Z,99859.16
2022-12-01T10:48:39.748Z,99863.50
2022-12-01T10:50:29.541Z,99860.03
2022-12-01T10:52:05.722Z,99857.44
2022-12-01T10:53:40.953Z,99858.28
2022-12-01T10:55:27.952Z,99858.28
2022-12-01T10:57:02.541Z,99854.81
2022-12-01T10:58:44.745Z,99861.78
2022-12-01T11:00:57.570Z,99846.97
2022-12-01T11:02:24.130Z,99856.56
2022-12-01T11:04:01.655Z,99860.91
2022-12-01T11:05:40.396Z,99855.69
2022-12-01T11:07:20.440Z,99837.38
2022-12-01T11:08:57.041Z,99855.69
2022-12-01T11:10:32.449Z,99855.69
2022-12-01T11:12:06.380Z,99838.25
2022-12-01T11:13:43.126Z,99862.66
2022-12-01T11:15:24.883Z,99869.63
2022-12-01T11:16:58.278Z,99862.66
2022-12-01T11:18:35.127Z,99846.97
2022-12-01T11:20:28.928Z,99859.19
2022-12-01T11:22:14.196Z,99856.56
2022-12-01T11:23:49.699Z,99854.81
2022-12-01T11:25:23.357Z,99853.97
2022-12-01T11:26:58.692Z,99850.47
2022-12-01T11:28:34.679Z,99847.81
2022-12-01T11:30:21.176Z,99849.56
2022-12-01T11:31:56.532Z,99851.31
2022-12-01T11:33:32.654Z,99848.69
2022-12-01T11:35:16.179Z,99853.94
2022-12-01T11:36:54.446Z,99838.28
2022-12-01T11:38:35.065Z,99843.50
2022-12-01T11:40:18.780Z,99836.50
2022-12-01T11:41:57.229Z,99839.13
2022-12-01T11:43:34.029Z,99843.47
2022-12-01T11:45:24.734Z,99832.16
2022-12-01T11:47:22.682Z,99833.03
2022-12-01T11:48:59.444Z,99833.00
2022-12-01T11:50:35.426Z,99843.47
2022-12-01T11:52:18.879Z,99839.09
2022-12-01T11:54:09.082Z,99834.78
2022-12-01T11:55:43.816Z,99834.78
2022-12-01T11:57:33.685Z,99840.84
2022-12-01T11:59:14.706Z,99844.38
2022-12-01T12:00:57.264Z,99833.03
2022-12-01T12:02:49.796Z,99833.03
2022-12-01T12:04:37.952Z,99834.78
2022-12-01T12:08:29.418Z,99840.00
2022-12-01T12:10:21.356Z,99843.47
2022-12-01T12:12:08.790Z,99847.84
2022-12-01T12:14:06.581Z,99840.00
2022-12-01T12:15:52.321Z,99843.47
2022-12-01T12:17:45.696Z,99843.47
2022-12-01T12:20:00.241Z,99845.22
2022-12-01T12:21:34.664Z,99840.88
2022-12-01T12:23:48.113Z,99852.19
2022-12-01T12:25:33.508Z,99849.59
2022-12-01T12:27:25.880Z,99845.22
2022-12-01T12:29:21.652Z,99846.97
2022-12-01T12:31:16.175Z,99846.09
2022-12-01T12:33:27.298Z,99843.50
2022-12-01T12:35:21.089Z,99837.38
2022-12-01T12:37:14.817Z,99841.75
2022-12-01T12:39:01.326Z,99845.22
2022-12-01T12:40:44.757Z,99824.31
2022-12-01T12:42:28.944Z,99844.34
2022-12-01T12:44:32.384Z,99838.25
2022-12-01T12:46:12.535Z,99836.50
2022-12-01T12:48:03.183Z,99840.84
2022-12-01T12:49:45.271Z,99832.16
2022-12-01T12:51:24.113Z,99833.03
2022-12-01T12:53:03.695Z,99843.47
2022-12-01T12:54:44.547Z,99838.25
2022-12-01T12:56:21.137Z,99840.00
2022-12-01T12:58:11.029Z,99842.63
2022-12-01T12:59:53.262Z,99829.56
2022-12-01T13:01:30.342Z,99827.81
2022-12-01T13:03:12.142Z,99823.44
2022-12-01T13:04:53.968Z,99820.84
2022-12-01T13:06:32.899Z,99828.69
2022-12-01T13:08:13.592Z,99828.69
2022-12-01T13:09:52.652Z,99801.66
2022-12-01T13:11:30.564Z,99824.31
2022-12-01T13:13:13.933Z,99802.53
2022-12-01T13:14:59.419Z,99799.94
2022-12-01T13:16:39.278Z,99806.03
2022-12-01T13:18:25.492Z,99826.06
2022-12-01T13:20:00.973Z,99830.41
2022-12-01T13:21:41.088Z,99820.84
2022-12-01T13:23:19.064Z,99826.06
2022-12-01T13:24:55.389Z,99833.91
2022-12-01T13:26:31.728Z,99808.63
2022-12-01T13:28:14.832Z,99826.94
2022-12-01T13:29:51.137Z,99834.78
2022-12-01T13:31:48.036Z,99825.19
2022-12-01T13:33:23.943Z,99826.94
2022-12-01T13:35:00.917Z,99835.63
2022-12-01T13:36:46.773Z,99824.34
2022-12-01T13:38:33.805Z,99827.81
2022-12-01T13:40:13.586Z,99822.59
2022-12-01T13:41:57.944Z,99821.72
2022-12-01T13:43:35.549Z,99814.75
2022-12-01T13:45:17.378Z,99827.81
2022-12-01T13:47:00.714Z,99829.56
2022-12-01T13:48:53.601Z,99836.53
2022-12-01T13:50:57.873Z,99829.56
2022-12-01T13:52:34.892Z,99833.91
2022-12-01T13:54:32.200Z,99835.63
2022-12-01T13:56:39.512Z,99826.94
2022-12-01T13:58:39.424Z,99836.53
2022-12-01T14:00:25.237Z,99850.47
2022-12-01T14:02:15.099Z,99842.63
2022-12-01T14:03:56.907Z,99829.53
2022-12-01T14:05:58.106Z,99838.28
2022-12-01T14:07:42.968Z,99838.28
2022-12-01T14:09:22.520Z,99826.94
2022-12-01T14:11:03.614Z,99833.03
2022-12-01T14:12:42.303Z,99829.56
2022-12-01T14:14:25.975Z,99829.56
2022-12-01T14:16:02.393Z,99834.78
2022-12-01T14:17:39.780Z,99834.78
2022-12-01T14:19:30.221Z,99831.31
2022-12-01T14:21:07.692Z,99837.41
2022-12-01T14:22:44.198Z,99841.78
2022-12-01T14:24:24.293Z,99848.72
2022-12-01T14:26:17.453Z,99841.75
2022-12-01T14:27:53.519Z,99836.53
2022-12-01T14:29:43.236Z,99842.63
2022-12-01T14:31:17.772Z,99834.78
2022-12-01T14:32:55.004Z,99846.09
2022-12-01T14:34:34.360Z,99841.75
2022-12-01T14:36:14.986Z,99835.66
2022-12-01T14:37:51.686Z,99838.25
2022-12-01T14:39:29.227Z,99841.75
2022-12-01T14:41:08.897Z,99841.78
2022-12-01T14:43:06.202Z,99843.50
2022-12-01T14:44:45.276Z,99839.13
2022-12-01T14:46:24.264Z,99841.78
2022-12-01T14:48:03.096Z,99831.28
2022-12-01T14:49:43.470Z,99844.34
2022-12-01T14:51:28.368Z,99851.34
2022-12-01T14:53:09.184Z,99847.88
2022-12-01T14:54:47.333Z,99850.47
2022-12-01T14:56:23.892Z,99862.66
2022-12-01T14:58:06.991Z,99853.09
2022-12-01T14:59:44.673Z,99850.47
2022-12-01T15:01:19.084Z,99853.06
2022-12-01T15:02:58.910Z,99847.84
2022-12-01T15:04:34.428Z,99860.94
2022-12-01T15:06:07.968Z,99863.53
2022-12-01T15:07:44.963Z,99857.44
2022-12-01T15:09:36.550Z,99867.03
2022-12-01T15:11:23.474Z,99853.94
2022-12-01T15:12:58.110Z,99853.94
2022-12-01T15:14:33.946Z,99855.69
2022-12-01T15:16:16.300Z,99856.56
2022-12-01T15:17:50.877Z,99860.91
2022-12-01T15:19:37.121Z,99862.66
2022-12-01T15:21:13.849Z,99855.69
2022-12-01T15:22:53.004Z,99861.78
2022-12-01T15:24:32.111Z,99865.28
2022-12-01T15:26:08.806Z,99859.19
2022-12-01T15:27:48.245Z,99861.81
2022-12-01T15:29:26.708Z,99862.69
2022-12-01T15:31:03.560Z,99867.03
2022-12-01T15:32:39.845Z,99862.69
2022-12-01T15:34:17.760Z,99866.13
2022-12-01T15:35:55.587Z,99876.59
2022-12-01T15:37:35.358Z,99858.28
2022-12-01T15:39:18.066Z,99865.28
2022-12-01T15:43:07.194Z,99869.63
2022-12-01T15:44:43.229Z,99863.53
2022-12-01T15:46:27.797Z,99859.19
2022-12-01T15:48:23.160Z,99853.94
2022-12-01T15:50:09.371Z,99860.91
2022-12-01T15:51:52.327Z,99854.81
2022-12-01T15:53:50.816Z,99867.88
2022-12-01T15:55:33.385Z,99869.63
2022-12-01T15:57:17.973Z,99873.97
2022-12-01T15:58:53.972Z,99871.38
2022-12-01T16:00:29.334Z,99867.88
2022-12-01T16:02:18.884Z,99869.66
2022-12-01T16:03:56.278Z,99866.16
2022-12-01T16:05:34.541Z,99871.38
2022-12-01T16:07:12.990Z,99865.25
2022-12-01T16:08:56.412Z,99859.19
2022-12-01T16:10:33.820Z,99865.28
2022-12-01T16:12:21.214Z,99864.41
2022-12-01T16:14:08.539Z,99866.16
2022-12-01T16:15:45.504Z,99867.88
2022-12-01T16:17:19.100Z,99867.88
2022-12-01T16:18:57.920Z,99871.38
2022-12-01T16:20:34.867Z,99871.34
2022-12-01T16:22:17.300Z,99876.59
2022-12-01T16:24:01.781Z,99878.38
2022-12-01T16:25:42.448Z,99880.94
2022-12-01T16:27:31.302Z,99875.72
2022-12-01T16:29:20.846Z,99869.63
2022-12-01T16:30:55.329Z,99874.84
2022-12-01T16:32:34.246Z,99876.59
2022-12-01T16:34:44.073Z,99876.56
2022-12-01T16:36:10.635Z,99874.81
2022-12-01T16:37:44.147Z,99874.81
2022-12-01T16:39:17.873Z,99880.94
2022-12-01T16:40:55.381Z,99892.25
2022-12-01T16:42:29.268Z,99880.94
2022-12-01T16:44:27.069Z,99887.03
2022-12-01T16:46:00.919Z,99881.81
2022-12-01T16:47:34.682Z,99882.66
2022-12-01T16:49:09.934Z,99885.28
2022-12-01T16:50:43.284Z,99882.66
2022-12-01T16:54:11.844Z,99897.50
2022-12-01T16:55:49.666Z,99888.78
2022-12-01T16:57:24.500Z,99887.88
2022-12-01T16:58:57.893Z,99883.53
2022-12-01T17:00:33.626Z,99894.88
2022-12-01T17:02:06.975Z,99890.50
2022-12-01T17:03:41.336Z,99892.22
2022-12-01T17:05:14.710Z,99888.75
2022-12-01T17:06:48.474Z,99896.59
2022-12-01T17:08:23.530Z,99895.69
2022-12-01T17:09:57.743Z,99893.94
2022-12-01T17:11:30.987Z,99887.84
2022-12-01T17:13:07.620Z,99888.72
2022-12-01T17:14:41.146Z,99906.97
2022-12-01T17:16:18.414Z,99899.13
2022-12-01T17:17:52.781Z,99899.16
2022-12-01T17:19:26.192Z,99899.13
2022-12-01T17:21:06.654Z,99899.13
2022-12-01T17:22:40.633Z,99905.19
2022-12-01T17:24:19.749Z,99904.31
2022-12-01T17:25:53.012Z,99902.56
2022-12-01T17:27:27.801Z,99899.97
2022-12-01T17:29:07.728Z,99904.31
2022-12-01T17:30:43.093Z,99906.03
2022-12-01T17:32:18.919Z,99902.56
2022-12-01T17:33:52.454Z,99902.56
2022-12-01T17:35:25.831Z,99921.69
2022-12-01T17:37:00.231Z,99906.03
2022-12-01T17:38:36.193Z,99902.56
2022-12-01T17:40:13.932Z,99906.03
2022-12-01T17:41:48.048Z,99915.63
2022-12-01T17:43:23.206Z,99910.38
2022-12-01T17:44:57.994Z,99909.50
2022-12-01T17:46:31.702Z,99916.47
2022-12-01T17:48:09.188Z,99910.38
2022-12-01T17:49:49.135Z,99905.16
2022-12-01T17:51:22.646Z,99913.84
2022-12-01T17:52:56.087Z,99907.78
2022-12-01T17:54:29.246Z,99906.88
2022-12-01T17:56:04.450Z,99893.81
2022-12-01T17:57:37.946Z,99907.78
2022-12-01T17:59:12.135Z,99907.78
2022-12-01T18:00:46.755Z,99898.19
2022-12-01T18:02:20.304Z,99902.50
2022-12-01T18:03:53.841Z,99901.63
2022-12-01T18:05:30.085Z,99897.25
2022-12-01T18:07:06.132Z,99894.63
2022-12-01T18:08:43.564Z,99898.13
2022-12-01T18:10:19.079Z,99895.50
2022-12-01T18:11:55.679Z,99899.84
2022-12-01T18:13:31.408Z,99892.00
2022-12-01T18:15:05.384Z,99900.72
2022-12-01T18:16:40.066Z,99897.25
2022-12-01T18:18:13.533Z,99899.84
2022-12-01T18:19:46.658Z,99904.19
2022-12-01T18:21:22.878Z,99899.84
2022-12-01T18:22:57.786Z,99897.25
2022-12-01T18:24:32.513Z,99901.59
2022-12-01T18:26:12.093Z,99908.56
2022-12-01T18:27:48.880Z,99897.22
2022-12-01T18:29:26.458Z,99905.06
2022-12-01T18:31:04.829Z,99905.94
2022-12-01T18:32:39.631Z,99905.03
2022-12-01T18:34:13.911Z,99912.81
2022-12-01T18:35:48.337Z,99897.19
2022-12-01T18:37:21.601Z,99903.28
2022-12-01T18:38:56.086Z,99897.19
2022-12-01T18:40:29.383Z,99905.91
2022-12-01T18:42:03.007Z,99898.97
2022-12-01T18:43:37.145Z,99906.78
2022-12-01T18:45:15.430Z,99890.22
2022-12-01T18:46:53.471Z,99911.16
2022-12-01T18:48:31.681Z,99909.44
2022-12-01T18:50:05.801Z,99908.56
2022-12-01T18:51:43.552Z,99888.53
2022-12-01T18:53:17.076Z,99908.59
2022-12-01T18:54:52.795Z,99910.34
2022-12-01T18:56:27.434Z,99921.69
2022-12-01T18:58:01.759Z,99915.59
2022-12-01T18:59:35.663Z,99919.94
2022-12-01T19:01:22.204Z,99920.78
2022-12-01T19:02:55.947Z,99927.75
2022-12-01T19:04:42.377Z,99914.66
2022-12-01T19:06:16.752Z,99915.53
2022-12-01T19:07:55.558Z,99913.78
2022-12-01T19:09:28.851Z,99919.88
2022-12-01T19:11:05.463Z,99926.81
2022-12-01T19:12:41.142Z,99918.13
2022-12-01T19:14:22.569Z,99929.44
2022-12-01T19:15:56.699Z,99916.38
2022-12-01T19:17:32.696Z,99911.16
2022-12-01T19:19:06.905Z,99917.25
2022-12-01T19:20:41.803Z,99927.72
2022-12-01T19:22:15.163Z,99918.16
2022-12-01T19:23:50.361Z,99921.59
2022-12-01T19:25:24.111Z,99912.03
2022-12-01T19:26:57.484Z,99917.25